Time,TemperatureF,DewpointF,PressureIn,WindDirection,WindDirectionDegrees,WindSpeedMPH,WindSpeedGustMPH,Humidity,HourlyPrecipIn,Conditions,Clouds,dailyrainin,SolarRadiationWatts/m^2,SoftwareType,DateUTC
2013-10-30 00:04:00,51.7,47.3,30.01,ESE,114,1.0,4.0,85,0.00,,,0.00,0,Wunderground v.1.15,2013-10-30 07:04:00,
2013-10-30 00:10:00,51.9,47.5,30.01,ESE,118,1.0,2.0,85,0.00,,,0.00,0,Wunderground v.1.15,2013-10-30 07:10:00,
2013-10-30 00:15:00,52.0,47.3,30.01,SE,139,1.0,2.0,84,0.00,,,0.00,0,Wunderground v.1.15,2013-10-30 07:15:00,
2013-10-30 00:20:00,52.0,47.3,30.01,SE,124,2.0,2.0,84,0.00,,,0.00,0,Wunderground v.1.15,2013-10-30 07:20:00,
2013-10-30 00:26:00,52.1,47.4,30.01,SE,131,2.0,2.0,84,0.00,,,0.00,0,Wunderground v.1.15,2013-10-30 07:26:00,
2013-10-30 00:31:00,52.2,47.5,30.01,ESE,123,1.0,2.0,84,0.00,,,0.00,0,Wunderground v.1.15,2013-10-30 07:31:00,
2013-10-30 00:36:00,52.2,47.5,30.01,ESE,121,1.0,2.0,84,0.00,,,0.00,0,Wunderground v.1.15,2013-10-30 07:36:00,
2013-10-30 00:41:00,52.1,47.4,30.01,SE,126,1.0,2.0,84,0.00,,,0.00,0,Wunderground v.1.15,2013-10-30 07:41:00,
2013-10-30 00:47:00,51.8,47.1,30.02,ESE,123,1.0,2.0,84,0.00,,,0.00,0,Wunderground v.1.15,2013-10-30 07:47:00,
2013-10-30 00:53:00,51.4,46.7,30.02,ESE,118,1.0,2.0,84,0.00,,,0.00,0,Wunderground v.1.15,2013-10-30 07:53:00,
2013-10-30 00:58:00,51.4,47.0,30.02,ESE,117,1.0,1.0,85,0.00,,,0.00,0,Wunderground v.1.15,2013-10-30 07:58:00,
2013-10-30 01:04:00,51.1,46.4,30.02,ESE,117,0.0,1.0,84,0.00,,,0.00,0,Wunderground v.1.15,2013-10-30 08:04:00,
2013-10-30 01:09:00,50.4,46.1,30.02,ESE,121,0.0,1.0,85,0.00,,,0.00,0,Wunderground v.1.15,2013-10-30 08:09:00,
2013-10-30 01:15:00,50.3,46.0,30.02,SE,128,1.0,1.0,85,0.00,,,0.00,0,Wunderground v.1.15,2013-10-30 08:15:00,
2013-10-30 01:20:00,50.2,46.2,30.02,ESE,117,2.0,2.0,86,0.00,,,0.00,0,Wunderground v.1.15,2013-10-30 08:20:00,
2013-10-30 01:26:00,50.2,46.2,30.02,ESE,117,2.0,4.0,86,0.00,,,0.00,0,Wunderground v.1.15,2013-10-30 08:26:00,
2013-10-30 01:31:00,50.1,46.4,30.02,ESE,109,2.0,3.0,87,0.00,,,0.00,0,Wunderground v.1.15,2013-10-30 08:31:00,
2013-10-30 01:37:00,50.2,46.5,30.02,ESE,113,2.0,3.0,87,0.00,,,0.00,0,Wunderground v.1.15,2013-10-30 08:37:00,
2013-10-30 01:42:00,50.0,46.3,30.02,SE,127,2.0,3.0,87,0.00,,,0.00,0,Wunderground v.1.15,2013-10-30 08:42:00,
2013-10-30 01:47:00,49.8,46.1,30.02,ESE,115,2.0,4.0,87,0.00,,,0.00,0,Wunderground v.1.15,2013-10-30 08:47:00,
2013-10-30 01:53:00,49.8,46.1,30.02,ESE,111,2.0,4.0,87,0.00,,,0.00,0,Wunderground v.1.15,2013-10-30 08:53:00,
2013-10-30 01:58:00,49.7,46.0,30.02,SE,133,2.0,4.0,87,0.00,,,0.00,0,Wunderground v.1.15,2013-10-30 08:58:00,
2013-10-30 02:04:00,49.5,45.8,30.02,ESE,115,2.0,4.0,87,0.00,,,0.00,0,Wunderground v.1.15,2013-10-30 09:04:00,
2013-10-30 02:09:00,49.3,45.9,30.02,SE,131,3.0,4.0,88,0.00,,,0.00,0,Wunderground v.1.15,2013-10-30 09:09:00,
2013-10-30 02:14:00,49.1,45.7,30.02,ESE,121,3.0,4.0,88,0.00,,,0.00,0,Wunderground v.1.15,2013-10-30 09:14:00,
2013-10-30 02:20:00,49.0,45.6,30.02,ESE,105,3.0,3.0,88,0.00,,,0.00,0,Wunderground v.1.15,2013-10-30 09:20:00,
2013-10-30 02:25:00,48.9,45.5,30.02,SE,134,3.0,4.0,88,0.00,,,0.00,0,Wunderground v.1.15,2013-10-30 09:25:00,
2013-10-30 02:30:00,48.8,45.4,30.02,SE,138,3.0,4.0,88,0.00,,,0.00,0,Wunderground v.1.15,2013-10-30 09:30:00,
2013-10-30 02:35:00,48.8,45.7,30.02,SE,136,3.0,4.0,89,0.00,,,0.00,0,Wunderground v.1.15,2013-10-30 09:35:00,
2013-10-30 02:41:00,48.6,45.5,30.02,ESE,123,2.0,4.0,89,0.00,,,0.00,0,Wunderground v.1.15,2013-10-30 09:41:00,
2013-10-30 02:46:00,48.5,45.4,30.02,ESE,109,3.0,5.0,89,0.00,,,0.00,0,Wunderground v.1.15,2013-10-30 09:46:00,
2013-10-30 02:52:00,48.5,45.4,30.02,SE,145,4.0,5.0,89,0.00,,,0.00,0,Wunderground v.1.15,2013-10-30 09:52:00,
2013-10-30 02:57:00,48.5,45.4,30.01,ESE,110,4.0,7.0,89,0.00,,,0.00,0,Wunderground v.1.15,2013-10-30 09:57:00,
2013-10-30 03:03:00,48.4,45.3,30.01,ESE,117,3.0,4.0,89,0.00,,,0.00,0,Wunderground v.1.15,2013-10-30 10:03:00,
2013-10-30 03:08:00,48.2,45.1,30.01,SE,128,3.0,5.0,89,0.00,,,0.00,0,Wunderground v.1.15,2013-10-30 10:08:00,
2013-10-30 03:14:00,48.0,44.9,30.01,SE,141,4.0,6.0,89,0.00,,,0.00,0,Wunderground v.1.15,2013-10-30 10:14:00,
2013-10-30 03:20:00,47.9,45.1,30.01,SE,138,4.0,4.0,90,0.00,,,0.00,0,Wunderground v.1.15,2013-10-30 10:20:00,
2013-10-30 03:25:00,47.9,45.1,30.01,SE,136,4.0,5.0,90,0.00,,,0.00,0,Wunderground v.1.15,2013-10-30 10:25:00,
2013-10-30 03:31:00,48.0,45.2,30.01,ESE,103,4.0,4.0,90,0.00,,,0.00,0,Wunderground v.1.15,2013-10-30 10:31:00,
2013-10-30 03:36:00,47.9,45.1,30.01,ESE,109,4.0,5.0,90,0.00,,,0.00,0,Wunderground v.1.15,2013-10-30 10:36:00,
2013-10-30 03:42:00,47.8,45.0,30.01,ESE,121,4.0,5.0,90,0.00,,,0.00,0,Wunderground v.1.15,2013-10-30 10:42:00,
2013-10-30 03:47:00,47.6,44.8,30.01,ESE,104,4.0,5.0,90,0.00,,,0.00,0,Wunderground v.1.15,2013-10-30 10:47:00,
2013-10-30 03:52:00,47.5,44.7,30.01,ESE,117,3.0,4.0,90,0.00,,,0.00,0,Wunderground v.1.15,2013-10-30 10:52:00,
2013-10-30 03:58:00,47.4,44.6,30.01,ESE,105,2.0,2.0,90,0.00,,,0.00,0,Wunderground v.1.15,2013-10-30 10:58:00,
2013-10-30 04:04:00,47.2,44.4,30.01,ESE,123,2.0,3.0,90,0.00,,,0.00,0,Wunderground v.1.15,2013-10-30 11:04:00,
2013-10-30 04:09:00,47.0,44.2,30.01,ESE,122,3.0,7.0,90,0.00,,,0.00,0,Wunderground v.1.15,2013-10-30 11:09:00,
2013-10-30 04:15:00,47.0,44.2,30.01,ESE,115,4.0,8.0,90,0.00,,,0.00,0,Wunderground v.1.15,2013-10-30 11:15:00,
2013-10-30 04:21:00,47.0,44.2,30.01,SE,142,4.0,5.0,90,0.00,,,0.00,0,Wunderground v.1.15,2013-10-30 11:21:00,
2013-10-30 04:26:00,47.0,44.2,30.01,SE,124,4.0,6.0,90,0.00,,,0.00,0,Wunderground v.1.15,2013-10-30 11:26:00,
2013-10-30 04:31:00,47.0,44.5,30.01,ESE,118,4.0,5.0,91,0.00,,,0.00,0,Wunderground v.1.15,2013-10-30 11:31:00,
2013-10-30 04:37:00,47.0,44.5,30.01,ESE,117,4.0,5.0,91,0.00,,,0.00,0,Wunderground v.1.15,2013-10-30 11:37:00,
2013-10-30 04:42:00,46.8,44.3,30.02,ESE,113,4.0,5.0,91,0.00,,,0.00,0,Wunderground v.1.15,2013-10-30 11:42:00,
2013-10-30 04:47:00,46.8,44.3,30.02,ESE,123,4.0,5.0,91,0.00,,,0.00,0,Wunderground v.1.15,2013-10-30 11:47:00,
2013-10-30 04:53:00,46.7,44.2,30.02,ESE,119,4.0,5.0,91,0.00,,,0.00,0,Wunderground v.1.15,2013-10-30 11:53:00,
2013-10-30 04:58:00,46.6,44.1,30.02,SE,130,3.0,3.0,91,0.00,,,0.00,0,Wunderground v.1.15,2013-10-30 11:58:00,
2013-10-30 05:04:00,46.7,44.2,30.02,ESE,115,4.0,4.0,91,0.00,,,0.00,0,Wunderground v.1.15,2013-10-30 12:04:00,
2013-10-30 05:10:00,46.5,44.0,30.02,ESE,121,4.0,4.0,91,0.00,,,0.00,0,Wunderground v.1.15,2013-10-30 12:10:00,
2013-10-30 05:15:00,46.5,44.0,30.02,ESE,107,5.0,5.0,91,0.00,,,0.00,0,Wunderground v.1.15,2013-10-30 12:15:00,
2013-10-30 05:21:00,46.6,44.1,30.02,SE,129,5.0,5.0,91,0.00,,,0.00,0,Wunderground v.1.15,2013-10-30 12:21:00,
2013-10-30 05:26:00,46.4,43.9,30.02,ESE,119,4.0,6.0,91,0.00,,,0.00,0,Wunderground v.1.15,2013-10-30 12:26:00,
2013-10-30 05:32:00,46.4,43.9,30.03,ESE,123,4.0,5.0,91,0.00,,,0.00,0,Wunderground v.1.15,2013-10-30 12:32:00,
2013-10-30 05:37:00,46.3,43.8,30.03,SSE,151,4.0,5.0,91,0.00,,,0.00,0,Wunderground v.1.15,2013-10-30 12:37:00,
2013-10-30 05:43:00,46.2,43.7,30.03,ESE,118,4.0,7.0,91,0.00,,,0.00,0,Wunderground v.1.15,2013-10-30 12:43:00,
2013-10-30 05:48:00,46.1,43.6,30.03,ESE,117,5.0,7.0,91,0.00,,,0.00,0,Wunderground v.1.15,2013-10-30 12:48:00,
2013-10-30 05:54:00,46.0,43.5,30.03,ESE,117,5.0,7.0,91,0.00,,,0.00,0,Wunderground v.1.15,2013-10-30 12:54:00,
2013-10-30 05:59:00,46.0,43.5,30.03,ESE,123,4.0,5.0,91,0.00,,,0.00,0,Wunderground v.1.15,2013-10-30 12:59:00,
2013-10-30 06:05:00,46.1,43.6,30.03,SE,131,4.0,5.0,91,0.00,,,0.00,0,Wunderground v.1.15,2013-10-30 13:05:00,
2013-10-30 06:10:00,46.0,43.5,30.03,ESE,123,4.0,7.0,91,0.00,,,0.00,0,Wunderground v.1.15,2013-10-30 13:10:00,
2013-10-30 06:15:00,46.0,43.5,30.03,ESE,119,5.0,8.0,91,0.00,,,0.00,0,Wunderground v.1.15,2013-10-30 13:15:00,
2013-10-30 06:20:00,46.1,43.6,30.03,ESE,111,5.0,5.0,91,0.00,,,0.00,0,Wunderground v.1.15,2013-10-30 13:20:00,
2013-10-30 06:26:00,46.0,43.5,30.03,ESE,116,5.0,5.0,91,0.00,,,0.00,0,Wunderground v.1.15,2013-10-30 13:26:00,
2013-10-30 06:31:00,45.9,43.4,30.03,ESE,111,4.0,5.0,91,0.00,,,0.00,0,Wunderground v.1.15,2013-10-30 13:31:00,
2013-10-30 06:37:00,46.0,43.5,30.03,ESE,115,3.0,5.0,91,0.00,,,0.00,0,Wunderground v.1.15,2013-10-30 13:37:00,
2013-10-30 06:42:00,45.9,43.4,30.03,ESE,107,4.0,5.0,91,0.00,,,0.00,0,Wunderground v.1.15,2013-10-30 13:42:00,
2013-10-30 06:47:00,45.9,43.4,30.03,ESE,106,4.0,6.0,91,0.00,,,0.00,0,Wunderground v.1.15,2013-10-30 13:47:00,
2013-10-30 06:53:00,45.9,43.4,30.03,ESE,112,4.0,5.0,91,0.00,,,0.00,0,Wunderground v.1.15,2013-10-30 13:53:00,
2013-10-30 06:58:00,45.8,43.3,30.04,ESE,107,4.0,4.0,91,0.00,,,0.00,0,Wunderground v.1.15,2013-10-30 13:58:00,
2013-10-30 07:04:00,45.9,43.7,30.04,SE,128,4.0,7.0,92,0.00,,,0.00,0,Wunderground v.1.15,2013-10-30 14:04:00,
2013-10-30 07:10:00,45.8,43.6,30.04,SE,132,4.0,5.0,92,0.00,,,0.00,5,Wunderground v.1.15,2013-10-30 14:10:00,
2013-10-30 07:15:00,45.9,43.7,30.04,East,98,4.0,5.0,92,0.00,,,0.00,7,Wunderground v.1.15,2013-10-30 14:15:00,
2013-10-30 07:20:00,45.9,43.7,30.04,ESE,123,3.0,8.0,92,0.00,,,0.00,11,Wunderground v.1.15,2013-10-30 14:20:00,
2013-10-30 07:26:00,46.1,43.9,30.05,ESE,121,3.0,8.0,92,0.00,,,0.00,14,Wunderground v.1.15,2013-10-30 14:26:00,
2013-10-30 07:31:00,46.2,44.0,30.05,ESE,111,3.0,4.0,92,0.00,,,0.00,18,Wunderground v.1.15,2013-10-30 14:31:00,
2013-10-30 07:37:00,46.3,44.1,30.05,ESE,105,3.0,4.0,92,0.00,,,0.00,28,Wunderground v.1.15,2013-10-30 14:37:00,
2013-10-30 07:43:00,46.4,44.2,30.05,ESE,104,3.0,4.0,92,0.00,,,0.00,26,Wunderground v.1.15,2013-10-30 14:43:00,
2013-10-30 07:48:00,46.8,44.6,30.05,ESE,104,3.0,3.0,92,0.00,,,0.00,46,Wunderground v.1.15,2013-10-30 14:48:00,
2013-10-30 07:54:00,47.0,44.8,30.05,ESE,107,3.0,7.0,92,0.00,,,0.00,47,Wunderground v.1.15,2013-10-30 14:54:00,
2013-10-30 07:59:00,47.2,45.0,30.06,ESE,110,3.0,4.0,92,0.00,,,0.00,53,Wunderground v.1.15,2013-10-30 14:59:00,
2013-10-30 08:05:00,47.5,45.0,30.06,ESE,111,4.0,5.0,91,0.00,,,0.00,46,Wunderground v.1.15,2013-10-30 15:05:00,
2013-10-30 08:11:00,47.9,45.4,30.06,SE,130,5.0,5.0,91,0.00,,,0.00,120,Wunderground v.1.15,2013-10-30 15:11:00,
2013-10-30 08:16:00,48.3,46.1,30.06,SE,124,5.0,6.0,92,0.00,,,0.00,120,Wunderground v.1.15,2013-10-30 15:16:00,
2013-10-30 08:22:00,49.0,46.5,30.06,ESE,118,4.0,5.0,91,0.00,,,0.00,125,Wunderground v.1.15,2013-10-30 15:22:00,
2013-10-30 08:27:00,49.6,46.8,30.06,ESE,120,4.0,5.0,90,0.00,,,0.00,104,Wunderground v.1.15,2013-10-30 15:27:00,
2013-10-30 08:33:00,50.5,47.7,30.06,SE,141,4.0,5.0,90,0.00,,,0.00,167,Wunderground v.1.15,2013-10-30 15:33:00,
2013-10-30 08:38:00,51.4,48.3,30.06,ESE,120,4.0,5.0,89,0.00,,,0.00,221,Wunderground v.1.15,2013-10-30 15:38:00,
2013-10-30 08:43:00,52.2,48.4,30.06,SE,133,3.0,5.0,87,0.00,,,0.00,237,Wunderground v.1.15,2013-10-30 15:43:00,
2013-10-30 08:49:00,53.4,49.3,30.06,ESE,103,3.0,3.0,86,0.00,,,0.00,257,Wunderground v.1.15,2013-10-30 15:49:00,
2013-10-30 08:54:00,54.6,49.9,30.06,ENE,67,2.0,6.0,84,0.00,,,0.00,272,Wunderground v.1.15,2013-10-30 15:54:00,
2013-10-30 09:00:00,55.8,50.1,30.06,SE,145,1.0,2.0,81,0.00,,,0.00,288,Wunderground v.1.15,2013-10-30 16:00:00,
2013-10-30 09:05:00,56.6,50.5,30.06,SSE,153,1.0,3.0,80,0.00,,,0.00,304,Wunderground v.1.15,2013-10-30 16:05:00,
2013-10-30 09:10:00,57.4,50.6,30.06,East,93,2.0,2.0,78,0.00,,,0.00,318,Wunderground v.1.15,2013-10-30 16:10:00,
2013-10-30 09:16:00,58.3,50.8,30.06,SE,144,1.0,2.0,76,0.00,,,0.00,332,Wunderground v.1.15,2013-10-30 16:16:00,
2013-10-30 09:21:00,59.0,50.7,30.06,SE,142,0.0,1.0,74,0.00,,,0.00,348,Wunderground v.1.15,2013-10-30 16:21:00,
2013-10-30 09:26:00,59.4,50.7,30.06,SSE,148,0.0,1.0,73,0.00,,,0.00,362,Wunderground v.1.15,2013-10-30 16:26:00,
2013-10-30 09:32:00,59.6,50.6,30.07,SSE,148,0.0,0.0,72,0.00,,,0.00,376,Wunderground v.1.15,2013-10-30 16:32:00,
2013-10-30 09:37:00,60.2,50.4,30.07,SW,214,1.0,2.0,70,0.00,,,0.00,390,Wunderground v.1.15,2013-10-30 16:37:00,
2013-10-30 09:43:00,60.4,50.2,30.07,SSW,210,2.0,3.0,69,0.00,,,0.00,404,Wunderground v.1.15,2013-10-30 16:43:00,
2013-10-30 09:48:00,60.4,50.2,30.07,SW,228,3.0,3.0,69,0.00,,,0.00,415,Wunderground v.1.15,2013-10-30 16:48:00,
2013-10-30 09:53:00,60.6,50.0,30.07,SW,225,3.0,5.0,68,0.00,,,0.00,425,Wunderground v.1.15,2013-10-30 16:53:00,
2013-10-30 09:58:00,60.7,50.1,30.07,SW,216,2.0,2.0,68,0.00,,,0.00,438,Wunderground v.1.15,2013-10-30 16:58:00,
2013-10-30 10:04:00,61.0,50.0,30.07,SSW,209,2.0,4.0,67,0.00,,,0.00,455,Wunderground v.1.15,2013-10-30 17:04:00,
2013-10-30 10:10:00,61.2,49.3,30.07,WSW,241,2.0,3.0,65,0.00,,,0.00,468,Wunderground v.1.15,2013-10-30 17:10:00,
2013-10-30 10:15:00,61.6,49.7,30.07,SW,217,2.0,4.0,65,0.00,,,0.00,478,Wunderground v.1.15,2013-10-30 17:15:00,
2013-10-30 10:21:00,62.2,49.9,30.07,WSW,252,2.0,3.0,64,0.00,,,0.00,489,Wunderground v.1.15,2013-10-30 17:21:00,
2013-10-30 10:26:00,62.2,49.4,30.07,SW,216,2.0,3.0,63,0.00,,,0.00,501,Wunderground v.1.15,2013-10-30 17:26:00,
2013-10-30 10:32:00,62.2,49.4,30.07,South,177,2.0,4.0,63,0.00,,,0.00,513,Wunderground v.1.15,2013-10-30 17:32:00,
2013-10-30 10:38:00,62.3,49.5,30.07,West,274,2.0,2.0,63,0.00,,,0.00,522,Wunderground v.1.15,2013-10-30 17:38:00,
2013-10-30 10:43:00,62.7,49.5,30.07,WSW,240,2.0,4.0,62,0.00,,,0.00,533,Wunderground v.1.15,2013-10-30 17:43:00,
2013-10-30 10:49:00,63.8,49.2,30.07,ESE,121,2.0,2.0,59,0.00,,,0.00,541,Wunderground v.1.15,2013-10-30 17:49:00,
2013-10-30 10:54:00,63.9,49.3,30.06,SSW,213,2.0,5.0,59,0.00,,,0.00,554,Wunderground v.1.15,2013-10-30 17:54:00,
2013-10-30 11:00:00,63.9,48.8,30.06,SW,236,3.0,6.0,58,0.00,,,0.00,563,Wunderground v.1.15,2013-10-30 18:00:00,
2013-10-30 11:06:00,63.9,48.4,30.06,East,92,2.0,6.0,57,0.00,,,0.00,568,Wunderground v.1.15,2013-10-30 18:06:00,
2013-10-30 11:11:00,64.9,47.9,30.06,SSW,205,2.0,5.0,54,0.00,,,0.00,573,Wunderground v.1.15,2013-10-30 18:11:00,
2013-10-30 11:17:00,64.7,48.6,30.06,SSW,212,2.0,5.0,56,0.00,,,0.00,585,Wunderground v.1.15,2013-10-30 18:17:00,
2013-10-30 11:22:00,65.2,48.1,30.06,WSW,245,2.0,3.0,54,0.00,,,0.00,589,Wunderground v.1.15,2013-10-30 18:22:00,
2013-10-30 11:27:00,65.0,48.4,30.06,South,183,2.0,5.0,55,0.00,,,0.00,594,Wunderground v.1.15,2013-10-30 18:27:00,
2013-10-30 11:32:00,65.2,48.1,30.06,South,188,3.0,5.0,54,0.00,,,0.00,601,Wunderground v.1.15,2013-10-30 18:32:00,
2013-10-30 11:38:00,65.4,48.3,30.06,SSW,204,3.0,3.0,54,0.00,,,0.00,603,Wunderground v.1.15,2013-10-30 18:38:00,
2013-10-30 11:43:00,65.5,48.4,30.06,NW,309,2.0,4.0,54,0.00,,,0.00,608,Wunderground v.1.15,2013-10-30 18:43:00,
2013-10-30 11:49:00,65.2,47.6,30.06,West,271,2.0,4.0,53,0.00,,,0.00,613,Wunderground v.1.15,2013-10-30 18:49:00,
2013-10-30 11:55:00,64.7,48.2,30.05,SW,236,3.0,6.0,55,0.00,,,0.00,617,Wunderground v.1.15,2013-10-30 18:55:00,
2013-10-30 12:00:00,65.4,47.8,30.05,WNW,296,3.0,6.0,53,0.00,,,0.00,619,Wunderground v.1.15,2013-10-30 19:00:00,
2013-10-30 12:06:00,65.0,47.9,30.05,SSW,195,2.0,6.0,54,0.00,,,0.00,621,Wunderground v.1.15,2013-10-30 19:06:00,
2013-10-30 12:11:00,66.5,48.3,30.05,SE,137,2.0,4.0,52,0.00,,,0.00,622,Wunderground v.1.15,2013-10-30 19:11:00,
2013-10-30 12:16:00,66.8,48.1,30.05,WSW,254,2.0,4.0,51,0.00,,,0.00,628,Wunderground v.1.15,2013-10-30 19:16:00,
2013-10-30 12:21:00,67.4,48.6,30.04,South,183,3.0,5.0,51,0.00,,,0.00,628,Wunderground v.1.15,2013-10-30 19:21:00,
2013-10-30 12:27:00,67.5,48.2,30.04,SE,146,3.0,5.0,50,0.00,,,0.00,626,Wunderground v.1.15,2013-10-30 19:27:00,
2013-10-30 12:32:00,67.8,48.5,30.04,WSW,241,2.0,4.0,50,0.00,,,0.00,628,Wunderground v.1.15,2013-10-30 19:32:00,
2013-10-30 12:38:00,68.1,48.2,30.03,West,279,2.0,3.0,49,0.00,,,0.00,628,Wunderground v.1.15,2013-10-30 19:38:00,
2013-10-30 12:44:00,67.4,48.1,30.03,NW,306,3.0,4.0,50,0.00,,,0.00,626,Wunderground v.1.15,2013-10-30 19:44:00,
2013-10-30 12:49:00,66.6,47.9,30.03,WNW,284,3.0,6.0,51,0.00,,,0.00,624,Wunderground v.1.15,2013-10-30 19:49:00,
2013-10-30 12:55:00,67.7,48.9,30.03,SW,221,4.0,7.0,51,0.00,,,0.00,622,Wunderground v.1.15,2013-10-30 19:55:00,
2013-10-30 13:00:00,67.5,47.7,30.03,NW,310,3.0,4.0,49,0.00,,,0.00,621,Wunderground v.1.15,2013-10-30 20:00:00,
2013-10-30 13:05:00,68.3,47.8,30.02,SSW,204,3.0,5.0,48,0.00,,,0.00,619,Wunderground v.1.15,2013-10-30 20:05:00,
2013-10-30 13:11:00,68.7,47.6,30.02,SSW,199,3.0,8.0,47,0.00,,,0.00,615,Wunderground v.1.15,2013-10-30 20:11:00,
2013-10-30 13:17:00,69.5,47.2,30.02,South,184,4.0,8.0,45,0.00,,,0.00,613,Wunderground v.1.15,2013-10-30 20:17:00,
2013-10-30 13:22:00,69.2,47.5,30.01,WNW,294,4.0,8.0,46,0.00,,,0.00,608,Wunderground v.1.15,2013-10-30 20:22:00,
2013-10-30 13:28:00,68.6,46.4,30.01,WSW,255,4.0,4.0,45,0.00,,,0.00,603,Wunderground v.1.15,2013-10-30 20:28:00,
2013-10-30 13:33:00,68.5,46.3,30.01,West,268,4.0,7.0,45,0.00,,,0.00,599,Wunderground v.1.15,2013-10-30 20:33:00,
2013-10-30 13:39:00,69.0,46.2,30.01,SSE,161,3.0,3.0,44,0.00,,,0.00,591,Wunderground v.1.15,2013-10-30 20:39:00,
2013-10-30 13:44:00,69.8,47.5,30.00,West,272,3.0,4.0,45,0.00,,,0.00,584,Wunderground v.1.15,2013-10-30 20:44:00,
2013-10-30 13:49:00,70.2,47.3,30.00,SSW,198,3.0,8.0,44,0.00,,,0.00,577,Wunderground v.1.15,2013-10-30 20:49:00,
2013-10-30 13:55:00,69.9,47.0,30.00,SSE,148,4.0,8.0,44,0.00,,,0.00,571,Wunderground v.1.15,2013-10-30 20:55:00,
2013-10-30 14:00:00,70.3,46.7,30.00,WSW,253,4.0,6.0,43,0.00,,,0.00,566,Wunderground v.1.15,2013-10-30 21:00:00,
2013-10-30 14:06:00,70.1,45.9,30.00,WSW,244,5.0,6.0,42,0.00,,,0.00,555,Wunderground v.1.15,2013-10-30 21:06:00,
2013-10-30 14:11:00,70.2,46.0,30.00,West,259,5.0,6.0,42,0.00,,,0.00,540,Wunderground v.1.15,2013-10-30 21:11:00,
2013-10-30 14:16:00,69.9,45.8,29.99,West,267,4.0,9.0,42,0.00,,,0.00,536,Wunderground v.1.15,2013-10-30 21:16:00,
2013-10-30 14:21:00,70.3,45.5,29.99,West,261,4.0,4.0,41,0.00,,,0.00,531,Wunderground v.1.15,2013-10-30 21:21:00,
2013-10-30 14:27:00,70.6,45.7,29.99,West,263,3.0,5.0,41,0.00,,,0.00,512,Wunderground v.1.15,2013-10-30 21:27:00,
2013-10-30 14:32:00,70.7,45.8,29.99,SSW,204,4.0,7.0,41,0.00,,,0.00,504,Wunderground v.1.15,2013-10-30 21:32:00,
2013-10-30 14:37:00,71.3,45.7,29.99,West,281,5.0,7.0,40,0.00,,,0.00,494,Wunderground v.1.15,2013-10-30 21:37:00,
2013-10-30 14:43:00,70.7,45.8,29.99,SW,236,4.0,7.0,41,0.00,,,0.00,485,Wunderground v.1.15,2013-10-30 21:43:00,
2013-10-30 14:48:00,70.7,45.8,29.99,SW,224,4.0,4.0,41,0.00,,,0.00,475,Wunderground v.1.15,2013-10-30 21:48:00,
2013-10-30 14:53:00,70.8,45.3,29.99,WSW,256,4.0,9.0,40,0.00,,,0.00,464,Wunderground v.1.15,2013-10-30 21:53:00,
2013-10-30 14:58:00,70.6,45.1,29.99,NW,305,4.0,5.0,40,0.00,,,0.00,450,Wunderground v.1.15,2013-10-30 21:58:00,
2013-10-30 15:04:00,70.7,44.5,29.99,West,275,4.0,6.0,39,0.00,,,0.00,438,Wunderground v.1.15,2013-10-30 22:04:00,
2013-10-30 15:09:00,71.3,43.7,29.99,SW,219,4.0,7.0,37,0.00,,,0.00,425,Wunderground v.1.15,2013-10-30 22:09:00,
2013-10-30 15:14:00,71.1,43.5,29.98,WNW,298,4.0,7.0,37,0.00,,,0.00,413,Wunderground v.1.15,2013-10-30 22:14:00,
2013-10-30 15:20:00,71.0,44.1,29.99,West,266,3.0,5.0,38,0.00,,,0.00,396,Wunderground v.1.15,2013-10-30 22:20:00,
2013-10-30 15:25:00,71.3,44.4,29.99,NW,305,3.0,5.0,38,0.00,,,0.00,383,Wunderground v.1.15,2013-10-30 22:25:00,
2013-10-30 15:31:00,71.6,43.9,29.98,West,275,3.0,3.0,37,0.00,,,0.00,367,Wunderground v.1.15,2013-10-30 22:31:00,
2013-10-30 15:36:00,71.5,43.8,29.98,South,171,3.0,7.0,37,0.00,,,0.00,357,Wunderground v.1.15,2013-10-30 22:36:00,
2013-10-30 15:42:00,71.1,44.2,29.98,WNW,302,4.0,7.0,38,0.00,,,0.00,341,Wunderground v.1.15,2013-10-30 22:42:00,
2013-10-30 15:48:00,71.3,43.7,29.98,WSW,254,4.0,5.0,37,0.00,,,0.00,325,Wunderground v.1.15,2013-10-30 22:48:00,
2013-10-30 15:53:00,71.4,43.8,29.98,WSW,249,3.0,5.0,37,0.00,,,0.00,311,Wunderground v.1.15,2013-10-30 22:53:00,
2013-10-30 15:58:00,71.4,43.8,29.98,NNW,338,4.0,4.0,37,0.00,,,0.00,299,Wunderground v.1.15,2013-10-30 22:58:00,
2013-10-30 16:04:00,71.2,43.6,29.98,West,281,4.0,4.0,37,0.00,,,0.00,283,Wunderground v.1.15,2013-10-30 23:04:00,
2013-10-30 16:09:00,71.2,43.6,29.98,WSW,246,4.0,6.0,37,0.00,,,0.00,267,Wunderground v.1.15,2013-10-30 23:09:00,
2013-10-30 16:15:00,71.5,43.1,29.98,WSW,258,3.0,6.0,36,0.00,,,0.00,250,Wunderground v.1.15,2013-10-30 23:15:00,
2013-10-30 16:20:00,71.4,43.8,29.98,WSW,257,3.0,3.0,37,0.00,,,0.00,232,Wunderground v.1.15,2013-10-30 23:20:00,
2013-10-30 16:26:00,71.1,43.5,29.98,West,269,3.0,6.0,37,0.00,,,0.00,211,Wunderground v.1.15,2013-10-30 23:26:00,
2013-10-30 16:31:00,71.9,44.2,29.97,WNW,285,2.0,3.0,37,0.00,,,0.00,193,Wunderground v.1.15,2013-10-30 23:31:00,
2013-10-30 16:36:00,71.3,43.7,29.98,WSW,254,2.0,5.0,37,0.00,,,0.00,174,Wunderground v.1.15,2013-10-30 23:36:00,
2013-10-30 16:42:00,70.4,43.6,29.97,NW,306,3.0,4.0,38,0.00,,,0.00,155,Wunderground v.1.15,2013-10-30 23:42:00,
2013-10-30 16:47:00,70.3,44.2,29.97,West,268,3.0,5.0,39,0.00,,,0.00,137,Wunderground v.1.15,2013-10-30 23:47:00,
2013-10-30 16:52:00,70.3,47.9,29.98,SW,236,4.0,7.0,45,0.00,,,0.00,120,Wunderground v.1.15,2013-10-30 23:52:00,
2013-10-30 16:57:00,69.4,48.3,29.98,WSW,240,5.0,8.0,47,0.00,,,0.00,104,Wunderground v.1.15,2013-10-30 23:57:00,
2013-10-30 17:03:00,69.0,47.9,29.98,SSW,211,5.0,7.0,47,0.00,,,0.00,84,Wunderground v.1.15,2013-10-31 00:03:00,
2013-10-30 17:08:00,68.8,48.3,29.98,SW,236,3.0,4.0,48,0.00,,,0.00,70,Wunderground v.1.15,2013-10-31 00:08:00,
2013-10-30 17:13:00,68.7,48.2,29.98,SSW,201,3.0,5.0,48,0.00,,,0.00,58,Wunderground v.1.15,2013-10-31 00:13:00,
2013-10-30 17:19:00,68.0,47.6,29.98,South,176,3.0,3.0,48,0.00,,,0.00,44,Wunderground v.1.15,2013-10-31 00:19:00,
2013-10-30 17:24:00,67.6,47.8,29.98,SW,230,3.0,6.0,49,0.00,,,0.00,30,Wunderground v.1.15,2013-10-31 00:24:00,
2013-10-30 17:29:00,67.0,47.7,29.99,SW,223,3.0,5.0,50,0.00,,,0.00,23,Wunderground v.1.15,2013-10-31 00:29:00,
2013-10-30 17:35:00,66.5,47.8,29.99,WSW,254,3.0,5.0,51,0.00,,,0.00,19,Wunderground v.1.15,2013-10-31 00:35:00,
2013-10-30 17:40:00,66.2,47.5,29.99,WSW,247,3.0,3.0,51,0.00,,,0.00,16,Wunderground v.1.15,2013-10-31 00:40:00,
2013-10-30 17:45:00,65.9,47.8,29.99,SSW,206,2.0,5.0,52,0.00,,,0.00,12,Wunderground v.1.15,2013-10-31 00:45:00,
2013-10-30 17:51:00,65.7,48.1,29.99,SE,137,3.0,7.0,53,0.00,,,0.00,11,Wunderground v.1.15,2013-10-31 00:51:00,
2013-10-30 17:56:00,65.2,48.1,29.99,SE,127,2.0,9.0,54,0.00,,,0.00,7,Wunderground v.1.15,2013-10-31 00:56:00,
2013-10-30 18:01:00,64.7,48.2,29.99,SSW,208,2.0,2.0,55,0.00,,,0.00,0,Wunderground v.1.15,2013-10-31 01:01:00,
2013-10-30 18:07:00,64.3,47.8,29.99,South,171,0.0,2.0,55,0.00,,,0.00,0,Wunderground v.1.15,2013-10-31 01:07:00,
2013-10-30 18:12:00,63.9,47.9,29.99,SSE,156,0.0,0.0,56,0.00,,,0.00,0,Wunderground v.1.15,2013-10-31 01:12:00,
2013-10-30 18:18:00,63.6,48.1,30.00,SE,131,1.0,1.0,57,0.00,,,0.00,0,Wunderground v.1.15,2013-10-31 01:18:00,
2013-10-30 18:24:00,63.0,48.0,30.00,SW,214,0.0,1.0,58,0.00,,,0.00,0,Wunderground v.1.15,2013-10-31 01:24:00,
2013-10-30 18:29:00,62.4,47.4,30.00,SW,219,0.0,1.0,58,0.00,,,0.00,0,Wunderground v.1.15,2013-10-31 01:29:00,
2013-10-30 18:35:00,62.3,48.2,30.00,South,191,1.0,3.0,60,0.00,,,0.00,0,Wunderground v.1.15,2013-10-31 01:35:00,
2013-10-30 18:40:00,61.8,47.8,30.01,SSW,202,1.0,1.0,60,0.00,,,0.00,0,Wunderground v.1.15,2013-10-31 01:40:00,
2013-10-30 18:46:00,61.1,48.0,30.01,SSW,203,0.0,1.0,62,0.00,,,0.00,0,Wunderground v.1.15,2013-10-31 01:46:00,
2013-10-30 18:51:00,61.3,49.4,30.01,SW,232,0.0,1.0,65,0.00,,,0.00,0,Wunderground v.1.15,2013-10-31 01:51:00,
2013-10-30 18:57:00,61.1,49.7,30.01,WSW,248,0.0,7.0,66,0.00,,,0.00,0,Wunderground v.1.15,2013-10-31 01:57:00,
2013-10-30 19:02:00,60.9,49.5,30.01,SW,222,0.0,1.0,66,0.00,,,0.00,0,Wunderground v.1.15,2013-10-31 02:02:00,
2013-10-30 19:08:00,60.8,49.8,30.01,WSW,253,0.0,0.0,67,0.00,,,0.00,0,Wunderground v.1.15,2013-10-31 02:08:00,
2013-10-30 19:13:00,60.7,49.7,30.01,West,262,0.0,0.0,67,0.00,,,0.00,0,Wunderground v.1.15,2013-10-31 02:13:00,
2013-10-30 19:18:00,60.3,49.3,30.01,West,262,0.0,0.0,67,0.00,,,0.00,0,Wunderground v.1.15,2013-10-31 02:18:00,
2013-10-30 19:23:00,59.5,48.1,30.02,West,262,0.0,0.0,66,0.00,,,0.00,0,Wunderground v.1.15,2013-10-31 02:23:00,
2013-10-30 19:29:00,58.7,47.4,30.02,West,262,0.0,0.0,66,0.00,,,0.00,0,Wunderground v.1.15,2013-10-31 02:29:00,
2013-10-30 19:34:00,57.8,46.9,30.02,SSE,149,0.0,1.0,67,0.00,,,0.00,0,Wunderground v.1.15,2013-10-31 02:34:00,
2013-10-30 19:39:00,56.7,46.3,30.02,SE,146,0.0,0.0,68,0.00,,,0.00,0,Wunderground v.1.15,2013-10-31 02:39:00,
2013-10-30 19:45:00,55.3,44.9,30.02,SE,132,1.0,3.0,68,0.00,,,0.00,0,Wunderground v.1.15,2013-10-31 02:45:00,
2013-10-30 19:50:00,54.4,44.8,30.02,SE,128,2.0,2.0,70,0.00,,,0.00,0,Wunderground v.1.15,2013-10-31 02:50:00,
2013-10-30 19:55:00,54.1,44.9,30.02,SE,129,2.0,2.0,71,0.00,,,0.00,0,Wunderground v.1.15,2013-10-31 02:55:00,
2013-10-30 20:01:00,54.0,45.2,30.02,SE,125,2.0,2.0,72,0.00,,,0.00,0,Wunderground v.1.15,2013-10-31 03:01:00,
2013-10-30 20:06:00,53.8,45.0,30.02,SE,127,1.0,2.0,72,0.00,,,0.00,0,Wunderground v.1.15,2013-10-31 03:06:00,
2013-10-30 20:08:00,53.8,45.3,30.02,SE,130,1.0,1.0,73,0.00,,,0.00,0,Wunderground v.1.15,2013-10-31 03:08:00,
2013-10-30 20:13:00,53.3,44.9,30.02,SE,128,1.0,4.0,73,0.00,,,0.00,0,Wunderground v.1.15,2013-10-31 03:13:00,
2013-10-30 20:19:00,52.9,44.5,30.02,SE,130,1.0,2.0,73,0.00,,,0.00,0,Wunderground v.1.15,2013-10-31 03:19:00,
2013-10-30 20:24:00,52.8,44.7,30.02,ESE,117,1.0,3.0,74,0.00,,,0.00,0,Wunderground v.1.15,2013-10-31 03:24:00,
2013-10-30 20:29:00,52.6,44.9,30.02,SE,125,2.0,3.0,75,0.00,,,0.00,0,Wunderground v.1.15,2013-10-31 03:29:00,
2013-10-30 20:34:00,52.6,44.9,30.02,SE,130,2.0,3.0,75,0.00,,,0.00,0,Wunderground v.1.15,2013-10-31 03:34:00,
2013-10-30 20:40:00,52.3,44.6,30.02,SE,136,2.0,2.0,75,0.00,,,0.00,0,Wunderground v.1.15,2013-10-31 03:40:00,
2013-10-30 20:46:00,52.5,45.2,30.02,SE,140,2.0,2.0,76,0.00,,,0.00,0,Wunderground v.1.15,2013-10-31 03:46:00,
2013-10-30 20:51:00,52.5,44.8,30.02,ESE,123,2.0,3.0,75,0.00,,,0.00,0,Wunderground v.1.15,2013-10-31 03:51:00,
2013-10-30 20:56:00,52.6,45.2,30.02,ESE,121,2.0,3.0,76,0.00,,,0.00,0,Wunderground v.1.15,2013-10-31 03:56:00,
2013-10-30 21:01:00,52.3,45.0,30.02,ESE,119,2.0,3.0,76,0.00,,,0.00,0,Wunderground v.1.15,2013-10-31 04:01:00,
2013-10-30 21:02:00,52.3,45.0,30.02,SE,124,2.0,3.0,76,0.00,,,0.00,0,Wunderground v.1.15,2013-10-31 04:02:00,
2013-10-30 21:04:00,52.2,44.9,30.02,SE,142,2.0,3.0,76,0.00,,,0.00,0,Wunderground v.1.15,2013-10-31 04:04:00,
2013-10-30 21:07:00,52.1,45.1,30.02,East,101,3.0,3.0,77,0.00,,,0.00,0,Wunderground v.1.15,2013-10-31 04:07:00,
2013-10-30 21:10:00,52.2,45.2,30.02,SE,125,2.0,3.0,77,0.00,,,0.00,0,Wunderground v.1.15,2013-10-31 04:10:00,
2013-10-30 21:15:00,51.9,44.9,30.03,ESE,103,2.0,4.0,77,0.00,,,0.00,0,Wunderground v.1.15,2013-10-31 04:15:00,
2013-10-30 21:17:00,51.9,44.9,30.03,ESE,105,2.0,4.0,77,0.00,,,0.00,0,Wunderground v.1.15,2013-10-31 04:17:00,
2013-10-30 21:22:00,51.8,44.8,30.03,SE,144,2.0,3.0,77,0.00,,,0.00,0,Wunderground v.1.15,2013-10-31 04:22:00,
2013-10-30 21:27:00,51.7,45.1,30.03,SE,133,2.0,3.0,78,0.00,,,0.00,0,Wunderground v.1.15,2013-10-31 04:27:00,
2013-10-30 21:32:00,51.5,44.5,30.03,SE,132,3.0,5.0,77,0.00,,,0.00,0,Wunderground v.1.15,2013-10-31 04:32:00,
2013-10-30 21:38:00,51.4,44.4,30.04,SE,125,2.0,2.0,77,0.00,,,0.00,0,Wunderground v.1.15,2013-10-31 04:38:00,
2013-10-30 21:43:00,51.3,44.7,30.04,SE,138,2.0,3.0,78,0.00,,,0.00,0,Wunderground v.1.15,2013-10-31 04:43:00,
2013-10-30 21:48:00,51.2,44.6,30.04,ESE,114,2.0,2.0,78,0.00,,,0.00,0,Wunderground v.1.15,2013-10-31 04:48:00,
2013-10-30 21:53:00,51.0,44.0,30.04,ESE,119,1.0,3.0,77,0.00,,,0.00,0,Wunderground v.1.15,2013-10-31 04:53:00,
2013-10-30 21:58:00,50.5,43.6,30.04,ESE,114,2.0,2.0,77,0.00,,,0.00,0,Wunderground v.1.15,2013-10-31 04:58:00,
2013-10-30 22:04:00,50.3,43.7,30.05,SE,146,3.0,5.0,78,0.00,,,0.00,0,Wunderground v.1.15,2013-10-31 05:04:00,
2013-10-30 22:09:00,50.2,43.6,30.05,ESE,108,3.0,4.0,78,0.00,,,0.00,0,Wunderground v.1.15,2013-10-31 05:09:00,
2013-10-30 22:15:00,50.3,43.7,30.05,ESE,118,3.0,4.0,78,0.00,,,0.00,0,Wunderground v.1.15,2013-10-31 05:15:00,
2013-10-30 22:20:00,50.1,43.5,30.05,ESE,116,3.0,4.0,78,0.00,,,0.00,0,Wunderground v.1.15,2013-10-31 05:20:00,
2013-10-30 22:26:00,49.9,43.3,30.05,ESE,120,4.0,5.0,78,0.00,,,0.00,0,Wunderground v.1.15,2013-10-31 05:26:00,
2013-10-30 22:32:00,49.9,43.3,30.05,SE,128,3.0,4.0,78,0.00,,,0.00,0,Wunderground v.1.15,2013-10-31 05:32:00,
2013-10-30 22:37:00,49.6,43.0,30.05,SE,127,3.0,4.0,78,0.00,,,0.00,0,Wunderground v.1.15,2013-10-31 05:37:00,
2013-10-30 22:43:00,49.4,42.8,30.05,ESE,117,4.0,5.0,78,0.00,,,0.00,0,Wunderground v.1.15,2013-10-31 05:43:00,
2013-10-30 22:48:00,49.4,42.8,30.05,SE,130,4.0,4.0,78,0.00,,,0.00,0,Wunderground v.1.15,2013-10-31 05:48:00,
2013-10-30 22:54:00,49.3,42.7,30.05,ESE,113,3.0,4.0,78,0.00,,,0.00,0,Wunderground v.1.15,2013-10-31 05:54:00,
2013-10-30 23:00:00,49.1,42.2,30.05,SE,132,3.0,5.0,77,0.00,,,0.00,0,Wunderground v.1.15,2013-10-31 06:00:00,
2013-10-30 23:05:00,48.8,42.2,30.05,ESE,118,3.0,5.0,78,0.00,,,0.00,0,Wunderground v.1.15,2013-10-31 06:05:00,
2013-10-30 23:11:00,48.5,42.0,30.05,East,98,3.0,4.0,78,0.00,,,0.00,0,Wunderground v.1.15,2013-10-31 06:11:00,
2013-10-30 23:16:00,48.6,42.0,30.06,ESE,123,3.0,5.0,78,0.00,,,0.00,0,Wunderground v.1.15,2013-10-31 06:16:00,
2013-10-30 23:21:00,48.5,42.0,30.06,ESE,119,3.0,8.0,78,0.00,,,0.00,0,Wunderground v.1.15,2013-10-31 06:21:00,
2013-10-30 23:27:00,48.4,41.9,30.06,SE,125,5.0,8.0,78,0.00,,,0.00,0,Wunderground v.1.15,2013-10-31 06:27:00,
2013-10-30 23:32:00,48.4,41.9,30.06,East,99,4.0,5.0,78,0.00,,,0.00,0,Wunderground v.1.15,2013-10-31 06:32:00,
2013-10-30 23:37:00,48.3,41.8,30.06,SE,132,4.0,5.0,78,0.00,,,0.00,0,Wunderground v.1.15,2013-10-31 06:37:00,
2013-10-30 23:42:00,48.2,42.0,30.06,SE,146,4.0,5.0,79,0.00,,,0.00,0,Wunderground v.1.15,2013-10-31 06:42:00,
2013-10-30 23:48:00,48.1,41.9,30.06,ESE,115,5.0,8.0,79,0.00,,,0.00,0,Wunderground v.1.15,2013-10-31 06:48:00,
2013-10-30 23:53:00,48.1,41.9,30.06,SE,125,5.0,8.0,79,0.00,,,0.00,0,Wunderground v.1.15,2013-10-31 06:53:00,
2013-10-30 23:58:00,48.2,42.0,30.06,ESE,111,5.0,5.0,79,0.00,,,0.00,0,Wunderground v.1.15,2013-10-31 06:58:00,